Time;durP1;ratioP1;P1;durP2;ratioP2;P2;SDS_P1;SDS_P2;PMS_P1;PMS_P2;Temp;Humidity;BMP_temperature;BMP_pressure;BME280_temperature;BME280_humidity;BME280_pressure;Samples;Min_cycle;Max_cycle;Signal;HPM_P1;HPM_P2
2022/06/25 00:00:37;;;;;;;0.00;0.00;;;20.10;99.90;;;;;;4935120;29;20222;-72
2022/06/25 00:03:05;;;;;;;0.00;0.00;;;20.10;99.90;;;;;;4935014;29;20194;-72
2022/06/25 00:05:34;;;;;;;0.00;0.00;;;20.10;99.90;;;;;;4934902;29;20236;-72
2022/06/25 00:08:02;;;;;;;0.00;0.00;;;20.10;99.90;;;;;;4934226;29;20213;-73
2022/06/25 00:10:29;;;;;;;0.00;0.00;;;20.10;99.90;;;;;;4935129;29;20214;-72
2022/06/25 00:12:56;;;;;;;0.00;0.00;;;20.20;99.90;;;;;;4934941;29;20208;-73
2022/06/25 00:15:24;;;;;;;0.00;0.00;;;20.20;99.90;;;;;;4934855;29;20207;-73
2022/06/25 00:17:52;;;;;;;0.00;0.00;;;20.10;99.90;;;;;;4934640;29;20198;-73
2022/06/25 00:20:20;;;;;;;0.00;0.00;;;20.10;99.90;;;;;;4933407;29;20234;-73
2022/06/25 00:22:49;;;;;;;0.00;0.00;;;20.10;99.90;;;;;;4935375;29;20202;-73
2022/06/25 00:25:17;;;;;;;0.00;0.00;;;20.00;99.90;;;;;;4929741;29;20214;-73
2022/06/25 00:27:45;;;;;;;0.00;0.00;;;20.00;99.90;;;;;;4905217;29;20219;-73
2022/06/25 00:30:13;;;;;;;0.00;0.00;;;19.90;99.90;;;;;;4914298;29;20832;-73
2022/06/25 00:32:40;;;;;;;0.00;0.00;;;19.90;99.90;;;;;;4915917;29;20611;-74
2022/06/25 00:35:09;;;;;;;0.00;0.00;;;19.90;99.90;;;;;;4910468;29;20201;-74
2022/06/25 00:37:37;;;;;;;0.00;0.00;;;19.90;99.90;;;;;;4917820;29;20206;-73
2022/06/25 00:40:09;;;;;;;0.00;0.00;;;19.90;99.90;;;;;;4932585;29;20594;-73
2022/06/25 00:42:37;;;;;;;0.00;0.00;;;19.90;99.90;;;;;;4934986;29;20198;-74
2022/06/25 00:45:05;;;;;;;0.00;0.00;;;19.80;99.90;;;;;;4933740;29;20608;-72
2022/06/25 00:47:33;;;;;;;0.00;0.00;;;19.70;99.90;;;;;;4934072;29;20205;-72
2022/06/25 00:50:02;;;;;;;0.00;0.00;;;19.80;99.90;;;;;;4934519;29;20210;-72
2022/06/25 00:52:33;;;;;;;0.00;0.00;;;19.80;99.90;;;;;;4934513;29;20207;-72
2022/06/25 00:55:10;;;;;;;0.00;0.00;;;19.70;99.90;;;;;;4934240;29;20194;-73
2022/06/25 00:57:41;;;;;;;0.00;0.00;;;19.60;99.90;;;;;;4934508;29;20216;-72
2022/06/25 01:00:11;;;;;;;0.00;0.00;;;19.60;99.90;;;;;;4935435;29;20218;-72
2022/06/25 01:02:41;;;;;;;0.00;0.00;;;19.50;99.90;;;;;;4924363;29;20210;-72
2022/06/25 01:05:13;;;;;;;0.00;0.00;;;19.30;99.90;;;;;;4932634;29;20215;-72
2022/06/25 01:07:45;;;;;;;0.00;0.00;;;19.30;99.90;;;;;;4933568;29;20206;-72
2022/06/25 01:10:14;;;;;;;0.00;0.00;;;19.20;99.90;;;;;;4935115;29;20230;-73
2022/06/25 01:12:43;;;;;;;0.00;0.00;;;19.10;99.90;;;;;;4919918;29;20284;-72
2022/06/25 01:15:16;;;;;;;0.00;0.00;;;19.10;99.90;;;;;;4935559;29;20237;-71
2022/06/25 01:17:46;;;;;;;0.00;0.00;;;19.10;99.90;;;;;;4917658;29;20208;-73
2022/06/25 01:20:15;;;;;;;0.00;0.00;;;19.10;99.90;;;;;;4932483;29;20242;-72
2022/06/25 01:22:44;;;;;;;0.00;0.00;;;19.00;99.90;;;;;;4916791;29;20215;-72
2022/06/25 01:25:15;;;;;;;0.00;0.00;;;19.00;99.90;;;;;;4916565;29;20266;-72
2022/06/25 01:27:44;;;;;;;0.00;0.00;;;18.90;99.90;;;;;;4934253;29;20206;-72
2022/06/25 01:30:13;;;;;;;0.00;0.00;;;18.90;99.90;;;;;;4933657;29;20236;-72
2022/06/25 01:32:41;;;;;;;0.00;0.00;;;18.90;99.90;;;;;;4934619;29;20674;-72
2022/06/25 01:35:10;;;;;;;0.00;0.00;;;18.80;99.90;;;;;;4916106;29;20198;-72
2022/06/25 01:37:38;;;;;;;0.00;0.00;;;18.70;99.90;;;;;;4917447;29;20198;-73
2022/06/25 01:40:08;;;;;;;0.00;0.00;;;18.70;99.90;;;;;;4934257;29;20274;-72
2022/06/25 01:45:22;;;;;;;0.00;0.00;;;18.70;99.90;;;;;;4927440;29;20207;-71
2022/06/25 01:47:50;;;;;;;0.10;0.10;;;18.80;99.90;;;;;;4916893;29;20207;-72
2022/06/25 01:50:19;;;;;;;0.00;0.00;;;18.80;99.90;;;;;;4916493;29;20233;-71
2022/06/25 01:52:47;;;;;;;0.00;0.00;;;18.70;99.90;;;;;;4917143;29;20222;-71
2022/06/25 01:55:17;;;;;;;0.00;0.00;;;18.70;99.90;;;;;;4933091;29;20203;-71
2022/06/25 01:57:47;;;;;;;0.00;0.00;;;18.60;99.90;;;;;;4916781;29;20199;-72
2022/06/25 02:00:18;;;;;;;0.00;0.00;;;18.60;99.90;;;;;;4919329;29;20286;-71
2022/06/25 02:02:52;;;;;;;0.00;0.00;;;18.50;99.90;;;;;;4921030;29;20697;-70
2022/06/25 02:05:56;;;;;;;0.00;0.00;;;18.50;99.90;;;;;;4920386;29;20206;-69
2022/06/25 02:08:13;;;;;;;0.00;0.00;;;18.50;99.90;;;;;;4922798;29;20616;-70
2022/06/25 02:10:43;;;;;;;0.00;0.00;;;18.40;99.90;;;;;;4937651;29;20560;-69
2022/06/25 02:13:11;;;;;;;0.00;0.00;;;18.50;99.90;;;;;;4936962;29;20213;-70
2022/06/25 02:15:41;;;;;;;0.00;0.00;;;18.50;99.90;;;;;;4934951;29;20201;-70
2022/06/25 02:18:10;;;;;;;0.00;0.00;;;18.50;99.90;;;;;;4936280;29;20213;-70
2022/06/25 02:20:40;;;;;;;0.00;0.00;;;18.50;99.90;;;;;;4923343;29;20594;-70
2022/06/25 02:23:09;;;;;;;0.00;0.00;;;18.50;99.90;;;;;;4913727;29;20206;-70
2022/06/25 02:25:37;;;;;;;0.00;0.00;;;18.60;99.90;;;;;;4936426;29;20202;-70
2022/06/25 02:28:14;;;;;;;0.00;0.00;;;18.60;99.90;;;;;;4931255;29;20662;-69
2022/06/25 02:30:42;;;;;;;0.00;0.00;;;18.60;99.90;;;;;;4923137;29;20225;-71
2022/06/25 02:33:12;;;;;;;0.00;0.00;;;18.70;99.90;;;;;;4918864;29;20216;-70
2022/06/25 02:35:42;;;;;;;0.00;0.00;;;18.60;99.90;;;;;;4916061;29;20290;-71
2022/06/25 02:38:12;;;;;;;0.00;0.00;;;18.60;99.90;;;;;;4900413;29;20294;-71
2022/06/25 02:40:42;;;;;;;0.00;0.00;;;18.60;99.90;;;;;;4901352;29;20262;-70
2022/06/25 02:43:10;;;;;;;0.00;0.00;;;18.50;99.90;;;;;;4919340;29;20578;-71
2022/06/25 02:45:44;;;;;;;0.00;0.00;;;18.50;99.90;;;;;;4919553;29;20584;-71
2022/06/25 02:48:13;;;;;;;0.00;0.00;;;18.40;99.90;;;;;;4918879;29;20226;-71
2022/06/25 02:50:43;;;;;;;0.00;0.00;;;18.40;99.90;;;;;;4919724;29;20202;-71
2022/06/25 02:53:13;;;;;;;0.00;0.00;;;18.50;99.90;;;;;;4916293;29;20242;-71
2022/06/25 03:01:19;;;;;;;0.00;0.00;;;18.50;99.90;;;;;;4907226;29;20254;-71
2022/06/25 03:03:47;;;;;;;0.00;0.00;;;18.60;99.90;;;;;;4919068;29;20639;-71
2022/06/25 03:06:16;;;;;;;0.00;0.00;;;18.70;99.90;;;;;;4918091;29;20246;-71
2022/06/25 03:08:43;;;;;;;0.00;0.00;;;18.60;99.90;;;;;;4915817;29;20223;-71
2022/06/25 03:11:13;;;;;;;0.00;0.00;;;18.60;99.90;;;;;;4905026;29;20213;-70
2022/06/25 03:13:41;;;;;;;0.00;0.00;;;18.60;99.90;;;;;;4918799;29;20839;-70
2022/06/25 03:16:10;;;;;;;0.00;0.00;;;18.60;99.90;;;;;;4918725;29;20198;-70
2022/06/25 03:18:39;;;;;;;0.00;0.00;;;18.60;99.90;;;;;;4918582;29;20666;-71
2022/06/25 03:21:40;;;;;;;0.00;0.00;;;18.60;99.90;;;;;;4917998;29;20210;-71
2022/06/25 03:24:08;;;;;;;0.00;0.00;;;18.60;99.90;;;;;;4934309;29;20207;-70
2022/06/25 03:26:36;;;;;;;0.00;0.00;;;18.50;99.90;;;;;;4935693;29;20208;-70
2022/06/25 03:29:05;;;;;;;0.00;0.00;;;18.60;99.90;;;;;;4918485;29;20222;-70
2022/06/25 03:31:37;;;;;;;0.00;0.00;;;18.50;99.90;;;;;;4919561;29;20206;-71
2022/06/25 03:34:26;;;;;;;0.00;0.00;;;18.40;99.90;;;;;;4934904;29;20202;-70
2022/06/25 03:36:55;;;;;;;0.00;0.00;;;18.40;99.90;;;;;;4930330;29;20206;-70
2022/06/25 03:39:24;;;;;;;0.00;0.00;;;18.40;99.90;;;;;;4904562;29;20795;-72
2022/06/25 03:41:53;;;;;;;0.00;0.00;;;18.40;99.90;;;;;;4918395;29;20209;-71
2022/06/25 03:44:29;;;;;;;0.00;0.00;;;18.30;99.90;;;;;;4906387;29;20225;-70
2022/06/25 03:47:07;;;;;;;0.00;0.00;;;18.30;99.90;;;;;;4914912;29;20223;-70
2022/06/25 03:49:37;;;;;;;0.00;0.00;;;18.30;99.90;;;;;;4899927;29;20706;-70
2022/06/25 03:52:12;;;;;;;0.00;0.00;;;18.30;99.90;;;;;;4918340;29;20218;-69
2022/06/25 03:54:40;;;;;;;0.00;0.00;;;18.30;99.90;;;;;;4917985;29;20214;-70
2022/06/25 03:57:10;;;;;;;0.00;0.00;;;18.40;99.90;;;;;;4933850;29;20669;-71
2022/06/25 04:00:00;;;;;;;0.00;0.00;;;18.40;99.90;;;;;;4917514;29;20249;-70
2022/06/25 04:02:39;;;;;;;0.00;0.00;;;18.30;99.90;;;;;;4934769;29;20257;-70
2022/06/25 04:05:27;;;;;;;0.00;0.00;;;18.30;99.90;;;;;;4928766;29;20744;-70
2022/06/25 04:07:59;;;;;;;0.00;0.00;;;18.30;99.90;;;;;;4902665;29;20321;-70
2022/06/25 04:10:28;;;;;;;0.00;0.00;;;18.30;99.90;;;;;;4917859;29;20304;-70
2022/06/25 04:13:04;;;;;;;0.00;0.00;;;18.40;99.90;;;;;;4916051;29;20260;-71
2022/06/25 04:15:34;;;;;;;0.00;0.00;;;18.30;99.90;;;;;;4916991;29;20234;-71
2022/06/25 04:18:02;;;;;;;0.00;0.00;;;18.20;99.90;;;;;;4917814;29;20697;-70
2022/06/25 04:20:33;;;;;;;0.00;0.00;;;18.30;99.90;;;;;;4915668;29;20277;-70
2022/06/25 04:23:01;;;;;;;0.00;0.00;;;18.30;99.90;;;;;;4902013;29;20259;-73
2022/06/25 04:25:31;;;;;;;0.00;0.00;;;18.40;99.90;;;;;;4921895;29;20320;-71
2022/06/25 04:30:44;;;;;;;0.00;0.00;;;18.40;99.90;;;;;;4923486;29;20203;-71
2022/06/25 04:33:12;;;;;;;0.00;0.00;;;18.50;99.90;;;;;;4908198;29;20210;-71
2022/06/25 04:35:53;;;;;;;0.00;0.00;;;18.50;99.90;;;;;;4915731;29;20214;-71
2022/06/25 04:38:40;;;;;;;0.00;0.00;;;18.40;99.90;;;;;;4916958;29;20226;-71
2022/06/25 04:41:08;;;;;;;0.00;0.00;;;18.50;99.90;;;;;;4933185;29;20204;-72
2022/06/25 04:43:36;;;;;;;0.00;0.00;;;18.50;99.90;;;;;;4934494;29;20234;-71
2022/06/25 04:46:09;;;;;;;0.00;0.00;;;18.50;99.90;;;;;;4915145;29;20203;-71
2022/06/25 04:48:40;;;;;;;0.00;0.00;;;18.50;99.90;;;;;;4913985;29;20234;-72
2022/06/25 04:51:24;;;;;;;0.00;0.00;;;18.60;99.90;;;;;;4915421;29;20224;-71
2022/06/25 04:53:56;;;;;;;0.00;0.00;;;18.60;99.90;;;;;;4928565;29;20572;-71
2022/06/25 04:56:37;;;;;;;0.00;0.00;;;18.60;99.90;;;;;;4932125;29;20202;-70
2022/06/25 04:59:06;;;;;;;0.00;0.00;;;18.70;99.90;;;;;;4914987;29;20223;-71
2022/06/25 05:01:54;;;;;;;0.00;0.00;;;18.60;99.90;;;;;;4933672;29;20748;-71
2022/06/25 05:04:36;;;;;;;0.00;0.00;;;18.60;99.90;;;;;;4916711;29;20678;-70
2022/06/25 05:07:05;;;;;;;0.00;0.00;;;18.60;99.90;;;;;;4917144;29;20213;-70
2022/06/25 05:09:33;;;;;;;0.00;0.00;;;18.70;99.90;;;;;;4916658;29;20590;-70
2022/06/25 05:12:02;;;;;;;0.00;0.00;;;18.70;99.90;;;;;;4917837;29;20233;-70
2022/06/25 05:14:34;;;;;;;0.00;0.00;;;18.70;99.90;;;;;;4917533;29;20213;-69
2022/06/25 05:17:02;;;;;;;0.00;0.00;;;18.70;99.90;;;;;;4918045;29;20202;-70
2022/06/25 05:19:30;;;;;;;0.00;0.00;;;18.70;99.90;;;;;;4934116;29;20218;-70
2022/06/25 05:21:58;;;;;;;0.00;0.00;;;18.70;99.90;;;;;;4937621;29;20190;-71
2022/06/25 05:24:27;;;;;;;0.00;0.00;;;18.80;99.90;;;;;;4932836;29;20217;-71
2022/06/25 05:26:55;;;;;;;0.00;0.00;;;18.90;99.90;;;;;;4925700;29;20251;-71
2022/06/25 05:29:23;;;;;;;0.00;0.00;;;18.90;99.90;;;;;;4916556;29;20706;-71
2022/06/25 05:31:55;;;;;;;0.00;0.00;;;18.90;99.90;;;;;;4917659;29;20218;-72
2022/06/25 05:34:23;;;;;;;0.00;0.00;;;19.00;99.90;;;;;;4917782;29;20687;-73
2022/06/25 05:36:51;;;;;;;0.00;0.00;;;19.00;99.90;;;;;;4920384;29;20206;-70
2022/06/25 05:39:19;;;;;;;0.00;0.00;;;19.00;99.90;;;;;;4902574;29;20234;-70
2022/06/25 05:41:48;;;;;;;0.00;0.00;;;19.00;99.90;;;;;;4933525;29;20210;-70
2022/06/25 05:44:16;;;;;;;0.00;0.00;;;19.20;99.90;;;;;;4937441;29;20214;-70
2022/06/25 05:46:44;;;;;;;0.00;0.00;;;19.20;99.90;;;;;;4937043;29;20697;-70
2022/06/25 05:49:12;;;;;;;0.00;0.00;;;19.20;99.90;;;;;;4915913;29;20614;-70
2022/06/25 05:51:40;;;;;;;0.00;0.00;;;19.20;99.90;;;;;;4938411;29;20737;-70
2022/06/25 05:54:08;;;;;;;0.00;0.00;;;19.20;99.90;;;;;;4938244;29;20221;-71
2022/06/25 05:56:36;;;;;;;0.00;0.00;;;19.40;99.90;;;;;;4920086;29;20210;-71
2022/06/25 05:59:05;;;;;;;0.00;0.00;;;19.40;99.90;;;;;;4931012;29;20222;-71
2022/06/25 06:01:36;;;;;;;0.00;0.00;;;19.50;99.90;;;;;;4919835;29;20238;-70
2022/06/25 06:04:05;;;;;;;0.00;0.00;;;19.60;99.90;;;;;;4937938;29;20203;-71
2022/06/25 06:06:33;;;;;;;0.00;0.00;;;19.70;99.90;;;;;;4936637;29;20206;-71
2022/06/25 06:09:00;;;;;;;0.00;0.00;;;19.80;99.90;;;;;;4936982;29;20702;-72
2022/06/25 06:11:28;;;;;;;0.00;0.00;;;19.90;99.90;;;;;;4936637;29;20698;-71
2022/06/25 06:13:56;;;;;;;0.00;0.00;;;20.00;99.90;;;;;;4936693;29;20546;-71
2022/06/25 06:16:26;;;;;;;0.00;0.00;;;19.90;99.90;;;;;;4937053;29;20262;-72
2022/06/25 06:18:53;;;;;;;0.00;0.00;;;20.00;99.90;;;;;;4919914;29;20215;-72
2022/06/25 06:21:21;;;;;;;0.00;0.00;;;20.10;99.90;;;;;;4936938;29;20281;-71
2022/06/25 06:23:49;;;;;;;0.00;0.00;;;20.20;99.90;;;;;;4936582;29;20206;-71
2022/06/25 06:26:17;;;;;;;0.00;0.00;;;20.20;99.90;;;;;;4936687;29;20206;-71
2022/06/25 06:28:45;;;;;;;0.00;0.00;;;20.20;99.90;;;;;;4936566;29;20222;-71
2022/06/25 06:31:13;;;;;;;0.00;0.00;;;20.20;99.90;;;;;;4937186;29;20206;-69
2022/06/25 06:33:42;;;;;;;0.00;0.00;;;20.20;99.90;;;;;;4936288;29;20257;-70
2022/06/25 06:36:10;;;;;;;0.00;0.00;;;20.20;99.90;;;;;;4936276;29;20207;-69
2022/06/25 06:38:38;;;;;;;0.00;0.00;;;20.30;99.90;;;;;;4936586;29;20620;-69
2022/06/25 06:41:05;;;;;;;0.00;0.00;;;20.40;99.90;;;;;;4936925;29;20198;-69
2022/06/25 06:43:33;;;;;;;0.00;0.00;;;20.40;99.90;;;;;;4937153;29;20261;-70
2022/06/25 06:46:01;;;;;;;0.00;0.00;;;20.60;99.90;;;;;;4934189;29;20270;-70
2022/06/25 06:48:29;;;;;;;0.00;0.00;;;20.70;99.90;;;;;;4921095;29;20226;-72
2022/06/25 06:50:58;;;;;;;0.00;0.00;;;20.80;99.90;;;;;;4936096;29;20712;-71
2022/06/25 06:53:26;;;;;;;0.00;0.00;;;20.90;99.90;;;;;;4925373;29;20277;-71
2022/06/25 06:55:55;;;;;;;0.00;0.00;;;20.90;99.90;;;;;;4933151;29;20206;-71
2022/06/25 06:58:22;;;;;;;0.00;0.00;;;21.10;99.90;;;;;;4935732;29;20254;-71
2022/06/25 07:00:50;;;;;;;0.00;0.00;;;21.10;99.90;;;;;;4936113;29;20210;-71
2022/06/25 07:03:18;;;;;;;0.00;0.00;;;21.10;99.90;;;;;;4935801;29;20574;-71
2022/06/25 07:05:46;;;;;;;0.00;0.00;;;21.10;99.90;;;;;;4935826;29;20203;-70
2022/06/25 07:08:24;;;;;;;0.00;0.00;;;21.20;99.90;;;;;;4934157;29;20618;-71
2022/06/25 07:10:52;;;;;;;0.00;0.00;;;21.10;99.90;;;;;;4934394;29;20206;-72
2022/06/25 07:13:20;;;;;;;0.00;0.00;;;21.10;99.90;;;;;;4933357;29;20209;-72
2022/06/25 07:15:48;;;;;;;0.00;0.00;;;21.10;99.90;;;;;;4947217;29;20204;-71
2022/06/25 07:18:16;;;;;;;0.00;0.00;;;21.10;99.90;;;;;;4955046;29;20210;-70
2022/06/25 07:20:44;;;;;;;0.00;0.00;;;21.20;99.90;;;;;;4948606;29;20344;-70
2022/06/25 07:23:18;;;;;;;0.00;0.00;;;21.20;99.90;;;;;;4935876;29;20610;-71
2022/06/25 07:25:47;;;;;;;0.00;0.00;;;21.30;99.90;;;;;;4935077;29;20198;-71
2022/06/25 07:28:16;;;;;;;0.00;0.00;;;21.40;99.90;;;;;;4934455;29;20194;-70
2022/06/25 07:30:43;;;;;;;0.00;0.00;;;21.60;99.90;;;;;;4935059;29;20218;-71
2022/06/25 07:33:11;;;;;;;0.00;0.00;;;21.90;99.90;;;;;;4935916;29;20206;-71
2022/06/25 07:35:39;;;;;;;0.00;0.00;;;22.00;99.90;;;;;;4936009;29;20210;-72
2022/06/25 07:38:07;;;;;;;0.00;0.00;;;22.10;99.90;;;;;;4935964;29;20206;-71
2022/06/25 07:40:34;;;;;;;0.00;0.00;;;22.00;99.90;;;;;;4935216;29;20222;-71
2022/06/25 07:43:04;;;;;;;0.00;0.00;;;22.00;99.90;;;;;;4935761;29;20562;-71
2022/06/25 07:45:32;;;;;;;0.00;0.00;;;22.00;99.90;;;;;;4935033;29;20253;-71
2022/06/25 07:48:05;;;;;;;0.00;0.00;;;22.00;99.90;;;;;;4934959;29;20562;-71
2022/06/25 07:53:18;;;;;;;0.00;0.00;;;22.00;99.90;;;;;;4934309;29;20237;-72
2022/06/25 07:55:46;;;;;;;0.00;0.00;;;22.10;99.90;;;;;;4935245;29;20287;-72
2022/06/25 07:58:16;;;;;;;0.00;0.00;;;22.00;99.90;;;;;;4934683;29;20206;-72
2022/06/25 08:00:43;;;;;;;0.00;0.00;;;22.00;99.90;;;;;;4931830;29;20241;-74
2022/06/25 08:03:11;;;;;;;0.00;0.00;;;22.00;99.90;;;;;;4935263;29;20261;-75
2022/06/25 08:05:39;;;;;;;0.00;0.00;;;21.90;99.90;;;;;;4935302;29;20198;-75
2022/06/25 08:08:07;;;;;;;0.00;0.00;;;22.10;99.90;;;;;;4935159;29;20216;-75
2022/06/25 08:10:35;;;;;;;0.00;0.00;;;22.20;99.90;;;;;;4932839;29;20646;-75
2022/06/25 08:13:03;;;;;;;0.00;0.00;;;22.20;99.90;;;;;;4932284;29;20210;-75
2022/06/25 08:15:32;;;;;;;0.00;0.00;;;22.20;99.90;;;;;;4926973;29;20258;-76
2022/06/25 08:18:00;;;;;;;0.00;0.00;;;22.20;99.90;;;;;;4930296;29;20194;-76
2022/06/25 08:20:28;;;;;;;0.00;0.00;;;22.30;99.90;;;;;;4934420;29;20487;-75
2022/06/25 08:22:56;;;;;;;0.00;0.00;;;22.30;99.90;;;;;;4934644;29;20261;-74
2022/06/25 08:25:24;;;;;;;0.00;0.00;;;22.40;99.90;;;;;;4935197;29;20262;-71
2022/06/25 08:27:54;;;;;;;0.00;0.00;;;22.60;99.90;;;;;;4933972;29;20202;-75
2022/06/25 08:30:24;;;;;;;0.00;0.00;;;22.80;99.90;;;;;;4927995;29;20689;-75
2022/06/25 08:32:54;;;;;;;0.00;0.00;;;22.70;99.90;;;;;;4933801;29;20277;-75
2022/06/25 08:35:23;;;;;;;0.00;0.00;;;22.70;99.90;;;;;;4933854;29;20682;-75
2022/06/25 08:37:53;;;;;;;0.00;0.00;;;22.60;99.90;;;;;;4934784;29;20273;-73
2022/06/25 08:40:22;;;;;;;0.00;0.00;;;22.60;99.90;;;;;;4935257;29;20218;-73
2022/06/25 08:42:49;;;;;;;0.00;0.00;;;22.60;99.90;;;;;;4938010;29;20689;-75
2022/06/25 08:45:18;;;;;;;0.00;0.00;;;22.80;99.90;;;;;;4941716;29;20206;-74
2022/06/25 08:47:47;;;;;;;0.00;0.00;;;22.80;99.90;;;;;;4941063;29;20205;-74
2022/06/25 08:50:21;;;;;;;0.00;0.00;;;22.80;99.90;;;;;;4938228;29;20218;-75
2022/06/25 08:52:50;;;;;;;0.00;0.00;;;22.80;99.90;;;;;;4939478;29;20210;-74
2022/06/25 08:55:27;;;;;;;0.00;0.00;;;22.70;99.90;;;;;;4939268;29;20273;-76
2022/06/25 08:57:56;;;;;;;0.00;0.00;;;22.80;99.90;;;;;;4917916;29;20282;-75
2022/06/25 09:00:24;;;;;;;0.00;0.00;;;22.70;99.90;;;;;;4923137;29;20261;-74
2022/06/25 09:02:52;;;;;;;0.00;0.00;;;22.80;99.90;;;;;;4929903;29;20218;-74
2022/06/25 09:05:27;;;;;;;0.00;0.00;;;23.00;99.90;;;;;;4904707;29;20213;-74
2022/06/25 09:07:57;;;;;;;0.00;0.00;;;23.20;99.90;;;;;;4907844;29;20225;-74
2022/06/25 09:10:26;;;;;;;0.00;0.00;;;23.20;99.90;;;;;;4937635;29;20897;-76
2022/06/25 09:12:56;;;;;;;0.00;0.00;;;23.20;99.90;;;;;;4936722;29;20206;-74
2022/06/25 09:15:27;;;;;;;0.00;0.00;;;23.30;99.90;;;;;;4916538;29;20217;-72
2022/06/25 09:17:56;;;;;;;0.00;0.00;;;23.50;99.90;;;;;;4921673;29;20213;-75
2022/06/25 09:20:31;;;;;;;0.00;0.00;;;23.70;99.90;;;;;;4934121;29;20214;-74
2022/06/25 09:23:02;;;;;;;0.00;0.00;;;24.10;99.90;;;;;;4940028;29;20213;-74
2022/06/25 09:25:32;;;;;;;0.00;0.00;;;24.40;99.90;;;;;;4940879;29;20707;-72
2022/06/25 09:28:01;;;;;;;0.00;0.00;;;24.40;99.90;;;;;;4941166;29;20593;-74
2022/06/25 09:30:32;;;;;;;0.00;0.00;;;24.80;99.90;;;;;;4934488;29;20225;-73
2022/06/25 09:33:01;;;;;;;0.00;0.00;;;25.00;99.90;;;;;;4956898;28;20756;-73
2022/06/25 09:35:33;;;;;;;0.00;0.00;;;25.00;99.90;;;;;;4939025;29;22082;-74
2022/06/25 09:38:06;;;;;;;0.00;0.00;;;24.90;99.90;;;;;;4938750;29;20198;-74
2022/06/25 09:40:35;;;;;;;0.00;0.00;;;24.90;99.90;;;;;;4937080;29;20728;-74
2022/06/25 09:43:14;;;;;;;0.00;0.00;;;24.70;99.90;;;;;;4939699;29;20297;-73
2022/06/25 09:45:44;;;;;;;0.00;0.00;;;24.30;99.90;;;;;;4941030;29;20206;-74
2022/06/25 09:48:18;;;;;;;0.00;0.00;;;24.20;99.90;;;;;;4929143;29;20209;-74
2022/06/25 09:51:05;;;;;;;0.00;0.00;;;24.20;99.90;;;;;;4946816;29;20252;-74
2022/06/25 09:53:34;;;;;;;0.00;0.00;;;24.10;99.90;;;;;;4928622;29;20214;-74
2022/06/25 09:56:02;;;;;;;0.00;0.00;;;24.10;99.90;;;;;;4914833;29;20198;-73
2022/06/25 09:58:32;;;;;;;0.00;0.00;;;24.30;99.90;;;;;;4939269;29;20542;-72
2022/06/25 10:01:02;;;;;;;0.00;0.00;;;24.30;99.90;;;;;;4940707;29;20214;-72
2022/06/25 10:03:31;;;;;;;0.00;0.00;;;24.50;99.90;;;;;;4935537;29;20226;-74
2022/06/25 10:06:01;;;;;;;0.00;0.00;;;24.90;99.90;;;;;;4939911;29;20839;-73
2022/06/25 10:08:30;;;;;;;0.00;0.00;;;25.40;99.90;;;;;;4940503;29;20194;-74
2022/06/25 10:10:59;;;;;;;0.00;0.00;;;25.70;99.90;;;;;;4940971;29;20232;-74
2022/06/25 10:13:27;;;;;;;0.00;0.00;;;26.00;99.90;;;;;;4940613;29;20234;-74
2022/06/25 10:15:55;;;;;;;0.00;0.00;;;26.00;99.90;;;;;;4940472;29;20194;-73
2022/06/25 10:18:24;;;;;;;0.00;0.00;;;25.70;99.90;;;;;;4922824;29;20201;-74
2022/06/25 10:20:52;;;;;;;0.00;0.00;;;25.50;99.90;;;;;;4921076;29;20198;-74
2022/06/25 10:23:22;;;;;;;0.00;0.00;;;25.30;99.90;;;;;;4937351;29;20551;-74
2022/06/25 10:25:51;;;;;;;0.00;0.00;;;25.40;99.90;;;;;;4937365;29;20206;-74
2022/06/25 10:28:26;;;;;;;0.00;0.00;;;25.40;99.90;;;;;;4936853;29;20207;-74
2022/06/25 10:30:56;;;;;;;0.00;0.00;;;25.30;99.90;;;;;;4937653;29;20237;-74
2022/06/25 10:33:25;;;;;;;0.00;0.00;;;25.30;99.90;;;;;;4937604;29;20674;-74
2022/06/25 10:35:56;;;;;;;0.00;0.00;;;25.00;99.90;;;;;;4930405;29;20202;-74
2022/06/25 10:38:27;;;;;;;0.00;0.00;;;24.90;99.90;;;;;;4921401;29;20668;-74
2022/06/25 10:40:56;;;;;;;0.00;0.00;;;24.80;99.90;;;;;;4901184;29;20207;-74
2022/06/25 10:43:41;;;;;;;0.00;0.00;;;24.90;99.90;;;;;;4922889;29;20210;-75
2022/06/25 10:46:30;;;;;;;0.00;0.00;;;24.90;99.90;;;;;;4937671;29;20213;-72
2022/06/25 10:49:08;;;;;;;0.00;0.00;;;24.90;99.90;;;;;;4936952;29;20229;-74
2022/06/25 10:51:42;;;;;;;0.00;0.00;;;25.00;99.90;;;;;;4919927;29;20284;-74
2022/06/25 10:54:35;;;;;;;0.00;0.00;;;25.30;99.90;;;;;;4937004;29;20213;-75
2022/06/25 10:57:04;;;;;;;0.00;0.00;;;25.40;99.90;;;;;;4921362;29;20213;-74
2022/06/25 10:59:49;;;;;;;0.00;0.00;;;25.50;99.90;;;;;;4921734;29;20237;-74
2022/06/25 11:02:23;;;;;;;0.00;0.00;;;25.70;99.90;;;;;;4937417;29;20198;-75
2022/06/25 11:04:53;;;;;;;0.00;0.00;;;25.90;99.90;;;;;;4936550;29;20199;-74
2022/06/25 11:07:24;;;;;;;0.00;0.00;;;26.00;99.90;;;;;;4936434;29;20286;-75
2022/06/25 11:09:56;;;;;;;0.00;0.00;;;26.30;99.90;;;;;;4936078;29;20737;-74
2022/06/25 11:12:24;;;;;;;0.00;0.00;;;26.70;99.90;;;;;;4936268;29;20210;-75
2022/06/25 11:14:59;;;;;;;0.00;0.00;;;26.70;99.90;;;;;;4936351;29;20261;-73
2022/06/25 11:17:27;;;;;;;0.00;0.00;;;26.70;99.90;;;;;;4937440;29;20257;-74
2022/06/25 11:19:55;;;;;;;0.00;0.00;;;26.70;99.90;;;;;;4936442;29;20222;-75
2022/06/25 11:22:23;;;;;;;0.00;0.00;;;26.80;99.90;;;;;;4936430;29;20199;-75
2022/06/25 11:30:26;;;;;;;0.00;0.00;;;26.80;99.90;;;;;;4935928;29;20245;-75
2022/06/25 11:32:55;;;;;;;0.00;0.00;;;26.70;99.90;;;;;;4935602;29;20658;-75
2022/06/25 11:35:23;;;;;;;0.00;0.00;;;26.60;99.90;;;;;;4936369;29;20210;-75
2022/06/25 11:37:51;;;;;;;0.00;0.00;;;26.30;99.90;;;;;;4935866;29;20199;-75
2022/06/25 11:40:20;;;;;;;0.00;0.00;;;26.10;99.90;;;;;;4938985;29;20225;-75
2022/06/25 11:42:48;;;;;;;0.00;0.00;;;26.30;99.90;;;;;;4940588;29;20195;-75
2022/06/25 11:45:16;;;;;;;0.00;0.00;;;26.20;99.90;;;;;;4936180;29;20207;-75
2022/06/25 11:47:44;;;;;;;0.00;0.00;;;25.90;99.90;;;;;;4938575;29;20286;-75
2022/06/25 11:50:13;;;;;;;0.00;0.00;;;25.70;99.90;;;;;;4936578;29;20229;-75
2022/06/25 11:52:42;;;;;;;0.00;0.00;;;25.40;99.90;;;;;;4935807;29;20222;-75
2022/06/25 11:55:11;;;;;;;0.00;0.00;;;25.30;99.90;;;;;;4935280;29;20202;-75
2022/06/25 11:57:44;;;;;;;0.00;0.00;;;25.10;99.90;;;;;;4935463;29;20608;-75
2022/06/25 12:00:14;;;;;;;0.00;0.00;;;25.20;99.90;;;;;;4935126;29;20226;-75
2022/06/25 12:02:43;;;;;;;0.00;0.00;;;25.20;99.90;;;;;;4918372;29;20194;-75
2022/06/25 12:05:12;;;;;;;0.00;0.00;;;25.20;99.90;;;;;;4918285;29;20261;-76
2022/06/25 12:07:45;;;;;;;0.00;0.00;;;25.20;99.90;;;;;;4935082;29;20209;-75
2022/06/25 12:10:14;;;;;;;0.00;0.00;;;25.30;99.90;;;;;;4935291;29;20206;-75
2022/06/25 12:12:43;;;;;;;0.00;0.00;;;25.30;99.90;;;;;;4935285;29;20222;-75
2022/06/25 12:15:12;;;;;;;0.00;0.00;;;25.40;99.90;;;;;;4935211;29;20217;-75
2022/06/25 12:17:47;;;;;;;0.00;0.00;;;25.30;99.90;;;;;;4935076;29;20198;-75
2022/06/25 12:20:15;;;;;;;0.00;0.00;;;25.30;99.90;;;;;;4934894;29;20226;-75
2022/06/25 12:22:52;;;;;;;0.00;0.00;;;25.50;99.90;;;;;;4935202;29;20229;-76
2022/06/25 12:25:24;;;;;;;0.00;0.00;;;25.50;99.90;;;;;;4934940;29;20293;-75
2022/06/25 12:27:54;;;;;;;0.00;0.00;;;25.50;99.90;;;;;;4935102;29;20261;-74
2022/06/25 12:30:23;;;;;;;0.00;0.00;;;25.70;99.90;;;;;;4935201;29;20656;-75
2022/06/25 12:32:52;;;;;;;0.00;0.00;;;25.70;99.90;;;;;;4935135;29;20229;-75
2022/06/25 12:35:22;;;;;;;0.00;0.00;;;25.80;99.90;;;;;;4934946;29;20269;-75
2022/06/25 12:38:01;;;;;;;0.00;0.00;;;25.90;99.90;;;;;;4934926;29;20670;-75
2022/06/25 12:40:29;;;;;;;0.00;0.00;;;25.90;99.90;;;;;;4934684;29;20331;-75
2022/06/25 12:43:00;;;;;;;0.00;0.00;;;25.80;99.90;;;;;;4934202;29;20206;-74
2022/06/25 12:45:31;;;;;;;0.00;0.00;;;25.80;99.90;;;;;;4934739;29;20198;-76
2022/06/25 12:47:59;;;;;;;0.00;0.00;;;26.00;99.90;;;;;;4934754;29;20663;-75
2022/06/25 12:50:29;;;;;;;0.00;0.00;;;26.30;99.90;;;;;;4934289;29;20227;-76
2022/06/25 12:53:05;;;;;;;0.00;0.00;;;26.60;99.90;;;;;;4934522;29;20230;-75
2022/06/25 12:55:33;;;;;;;0.00;0.00;;;27.00;99.90;;;;;;4934605;29;20210;-75
2022/06/25 12:58:04;;;;;;;0.00;0.00;;;27.10;99.90;;;;;;4934555;29;20202;-75
2022/06/25 13:00:35;;;;;;;0.00;0.00;;;27.00;99.90;;;;;;4934731;29;20777;-75
2022/06/25 13:03:03;;;;;;;0.00;0.00;;;26.80;99.90;;;;;;4934833;29;20205;-75
2022/06/25 13:05:31;;;;;;;0.00;0.00;;;26.60;99.90;;;;;;4934648;29;20206;-75
2022/06/25 13:07:59;;;;;;;0.00;0.00;;;26.40;99.90;;;;;;4934528;29;20546;-75
2022/06/25 13:10:27;;;;;;;0.00;0.00;;;26.20;99.90;;;;;;4934409;29;20241;-75
2022/06/25 13:12:56;;;;;;;0.00;0.00;;;26.00;99.90;;;;;;4917408;29;20701;-76
2022/06/25 13:15:26;;;;;;;0.00;0.00;;;26.00;99.90;;;;;;4934372;29;20416;-75
2022/06/25 13:17:54;;;;;;;0.00;0.00;;;26.10;99.90;;;;;;4934787;29;21087;-75
2022/06/25 13:20:22;;;;;;;0.00;0.00;;;26.20;99.90;;;;;;4934124;29;20218;-74
2022/06/25 13:22:50;;;;;;;0.00;0.00;;;26.20;99.90;;;;;;4934541;29;20210;-75